Time;durP1;ratioP1;P1;durP2;ratioP2;P2;SDS_P1;SDS_P2;PMS_P1;PMS_P2;Temp;Humidity;BMP_temperature;BMP_pressure;BME280_temperature;BME280_humidity;BME280_pressure;Samples;Min_cycle;Max_cycle;Signal;HPM_P1;HPM_P2
2023/01/12 00:01:20;;;;;;;0.00;0.00;;;8.40;99.90;;;;;;5080422;28;20041;-73
2023/01/12 00:03:46;;;;;;;0.10;0.10;;;8.40;99.90;;;;;;5068415;28;20045;-73
2023/01/12 00:06:13;;;;;;;1.13;1.13;;;8.30;99.90;;;;;;5078571;28;20165;-74
2023/01/12 00:08:38;;;;;;;0.43;0.43;;;8.30;99.90;;;;;;5073655;28;20090;-74
2023/01/12 00:11:04;;;;;;;2.63;2.40;;;8.30;99.90;;;;;;5083435;28;20032;-74
2023/01/12 00:13:31;;;;;;;4.53;2.47;;;8.30;99.90;;;;;;5086406;28;20046;-74
2023/01/12 00:18:46;;;;;;;0.20;0.20;;;8.40;99.90;;;;;;5069247;28;20500;-74
2023/01/12 00:21:12;;;;;;;0.10;0.10;;;8.30;99.90;;;;;;5068965;28;20439;-74
2023/01/12 00:23:38;;;;;;;0.10;0.10;;;8.30;99.90;;;;;;5070004;28;20045;-74
2023/01/12 00:26:07;;;;;;;0.17;0.17;;;8.40;99.90;;;;;;5073339;28;20483;-74
2023/01/12 00:28:34;;;;;;;0.10;0.10;;;8.40;99.90;;;;;;5070591;28;20400;-74
2023/01/12 00:31:01;;;;;;;0.30;0.30;;;8.40;99.90;;;;;;5090598;28;20046;-74
2023/01/12 00:33:26;;;;;;;0.10;0.10;;;8.40;99.90;;;;;;5093428;28;20040;-74
2023/01/12 00:35:52;;;;;;;0.10;0.10;;;8.40;99.90;;;;;;5092770;28;20140;-74
2023/01/12 00:38:17;;;;;;;0.47;0.47;;;8.40;99.90;;;;;;5063334;28;20048;-74
2023/01/12 00:40:43;;;;;;;0.75;0.75;;;8.30;99.90;;;;;;5072902;28;20080;-74
2023/01/12 00:45:52;;;;;;;0.10;0.10;;;8.30;99.90;;;;;;5072794;28;20048;-74
2023/01/12 00:48:18;;;;;;;0.10;0.10;;;8.30;99.90;;;;;;5072578;28;20036;-74
2023/01/12 00:50:45;;;;;;;0.00;0.00;;;8.30;99.90;;;;;;5085035;28;20044;-74
2023/01/12 00:53:11;;;;;;;0.65;0.65;;;8.30;99.90;;;;;;5074967;28;20084;-74
2023/01/12 00:55:37;;;;;;;0.00;0.00;;;8.30;99.90;;;;;;5071910;28;20508;-74
2023/01/12 00:58:03;;;;;;;0.52;0.52;;;8.30;99.90;;;;;;5071693;28;20086;-74
2023/01/12 01:00:28;;;;;;;4.57;2.85;;;8.30;99.90;;;;;;5072273;28;20381;-74
2023/01/12 01:02:54;;;;;;;0.10;0.10;;;8.40;99.90;;;;;;5071395;28;20113;-74
2023/01/12 01:05:19;;;;;;;9.65;3.60;;;8.40;99.90;;;;;;5063864;28;20071;-74
2023/01/12 01:07:46;;;;;;;0.28;0.28;;;8.50;99.90;;;;;;5072112;28;20048;-73
2023/01/12 01:10:13;;;;;;;0.75;0.75;;;8.50;99.90;;;;;;5071133;28;20045;-74
2023/01/12 01:12:39;;;;;;;3.13;0.75;;;8.50;99.90;;;;;;5054287;28;20059;-74
2023/01/12 01:15:06;;;;;;;0.10;0.10;;;8.50;99.90;;;;;;5072431;28;20400;-74
2023/01/12 01:17:32;;;;;;;0.85;0.85;;;8.50;99.90;;;;;;5064228;28;20040;-74
2023/01/12 01:19:57;;;;;;;0.10;0.10;;;8.50;99.90;;;;;;5072255;28;20492;-74
2023/01/12 01:22:23;;;;;;;0.32;0.32;;;8.60;99.90;;;;;;5054206;28;20048;-74
2023/01/12 01:24:49;;;;;;;0.85;0.85;;;8.50;99.90;;;;;;5055888;28;20081;-74
2023/01/12 01:27:15;;;;;;;0.45;0.45;;;8.50;99.90;;;;;;5091344;28;20052;-74
2023/01/12 01:29:40;;;;;;;0.10;0.10;;;8.50;99.90;;;;;;5074281;28;20093;-74
2023/01/12 01:32:06;;;;;;;0.90;0.90;;;8.50;99.90;;;;;;5090888;28;20032;-74
2023/01/12 01:34:32;;;;;;;0.10;0.10;;;8.50;99.90;;;;;;5072347;28;20044;-74
2023/01/12 01:36:58;;;;;;;3.20;1.65;;;8.50;99.90;;;;;;5076010;28;20062;-74
2023/01/12 01:39:24;;;;;;;0.10;0.10;;;8.50;99.90;;;;;;5057962;28;20044;-73
2023/01/12 01:41:50;;;;;;;0.08;0.08;;;8.50;99.90;;;;;;5071594;28;20135;-74
2023/01/12 01:44:28;;;;;;;1.23;1.17;;;8.50;99.90;;;;;;5079974;28;20459;-74
2023/01/12 01:47:07;;;;;;;0.10;0.10;;;8.50;99.90;;;;;;5076882;28;20056;-73
2023/01/12 01:49:38;;;;;;;0.10;0.10;;;8.50;99.90;;;;;;5053582;28;20048;-74
2023/01/12 01:52:12;;;;;;;0.10;0.10;;;8.50;99.90;;;;;;5078744;28;20097;-74
2023/01/12 01:54:46;;;;;;;1.65;1.55;;;8.60;99.90;;;;;;5070730;28;20134;-74
2023/01/12 01:57:13;;;;;;;1.50;1.45;;;8.70;99.90;;;;;;5053135;28;20671;-73
2023/01/12 01:59:42;;;;;;;0.15;0.15;;;8.70;99.90;;;;;;5083900;28;20054;-74
2023/01/12 02:02:08;;;;;;;0.25;0.25;;;8.70;99.90;;;;;;5092152;28;20091;-74
2023/01/12 02:04:35;;;;;;;0.15;0.15;;;8.70;99.90;;;;;;5081144;28;20045;-73
2023/01/12 02:07:01;;;;;;;0.10;0.10;;;8.70;99.90;;;;;;5065817;28;20039;-73
2023/01/12 02:09:29;;;;;;;1.17;0.75;;;8.60;99.90;;;;;;5079356;28;20053;-73
2023/01/12 02:17:55;;;;;;;15.43;0.93;;;8.70;99.90;;;;;;5110670;28;20530;-72
2023/01/12 02:20:47;;;;;;;2.13;1.88;;;8.70;99.90;;;;;;5063106;28;20045;-72
2023/01/12 02:23:21;;;;;;;0.10;0.10;;;8.70;99.90;;;;;;5071668;28;20066;-72
2023/01/12 02:25:50;;;;;;;1.38;1.00;;;8.70;99.90;;;;;;5077221;28;20048;-72
2023/01/12 02:28:40;;;;;;;0.10;0.10;;;8.60;99.90;;;;;;5073318;28;20127;-73
2023/01/12 02:31:31;;;;;;;3.10;2.83;;;8.70;99.90;;;;;;5067010;28;20148;-73
2023/01/12 02:34:25;;;;;;;0.15;0.15;;;8.70;99.90;;;;;;5056551;28;20056;-73
2023/01/12 02:37:13;;;;;;;;;;;8.70;99.90;;;;;;5065025;28;20054;-73
2023/01/12 02:40:10;;;;;;;0.00;0.00;;;8.70;99.90;;;;;;5070821;28;19920;-74
2023/01/12 02:43:03;;;;;;;0.10;0.10;;;8.70;99.90;;;;;;5070096;28;20127;-74
2023/01/12 02:45:35;;;;;;;11.88;4.55;;;8.80;99.90;;;;;;5079935;28;20083;-73
2023/01/12 02:48:25;;;;;;;22.80;2.40;;;8.80;99.90;;;;;;5069764;28;20048;-73
2023/01/12 02:51:10;;;;;;;2.30;1.55;;;8.80;99.90;;;;;;5070839;28;20052;-74
2023/01/12 02:53:50;;;;;;;0.05;0.05;;;8.80;99.90;;;;;;5074484;28;20068;-74
2023/01/12 02:56:23;;;;;;;0.95;0.93;;;8.80;99.90;;;;;;5070340;28;20040;-73
2023/01/12 02:58:54;;;;;;;5.60;2.97;;;8.80;99.90;;;;;;5070853;28;20124;-74
2023/01/12 03:01:22;;;;;;;16.50;1.20;;;8.80;99.90;;;;;;5053277;28;20425;-73
2023/01/12 03:03:49;;;;;;;0.65;0.65;;;8.90;99.90;;;;;;5051552;28;20044;-74
2023/01/12 03:06:16;;;;;;;0.10;0.10;;;8.80;99.90;;;;;;5059073;28;20048;-73
2023/01/12 03:08:44;;;;;;;0.10;0.10;;;8.80;99.90;;;;;;5076656;28;20438;-74
2023/01/12 03:11:16;;;;;;;0.10;0.10;;;8.90;99.90;;;;;;5087126;28;20055;-73
2023/01/12 03:13:51;;;;;;;0.50;0.50;;;8.90;99.90;;;;;;5110611;28;20058;-73
2023/01/12 03:16:21;;;;;;;8.77;3.10;;;8.90;99.90;;;;;;5075733;28;20503;-73
2023/01/12 03:18:53;;;;;;;2.63;0.88;;;8.90;99.90;;;;;;5070148;28;20131;-74
2023/01/12 03:21:31;;;;;;;4.05;2.17;;;8.90;99.90;;;;;;5084184;28;20032;-73
2023/01/12 03:24:15;;;;;;;0.10;0.10;;;8.90;99.90;;;;;;5069714;28;20606;-74
2023/01/12 03:26:50;;;;;;;0.20;0.20;;;9.00;99.90;;;;;;5086703;28;20434;-73
2023/01/12 03:29:28;;;;;;;1.38;1.27;;;9.00;99.90;;;;;;5076112;28;20074;-73
2023/01/12 03:31:55;;;;;;;1.10;1.10;;;9.00;99.90;;;;;;5069026;28;20070;-73
2023/01/12 03:34:21;;;;;;;1.35;1.23;;;9.00;99.90;;;;;;5086708;28;20040;-73
2023/01/12 03:37:09;;;;;;;6.13;2.05;;;9.00;99.90;;;;;;5070611;28;20221;-73
2023/01/12 03:40:05;;;;;;;0.98;0.98;;;9.10;99.90;;;;;;5070079;28;20048;-73
2023/01/12 03:42:56;;;;;;;0.43;0.43;;;9.10;99.90;;;;;;5078641;28;20040;-73
2023/01/12 03:45:57;;;;;;;0.45;0.45;;;9.10;99.90;;;;;;5051430;28;20480;-73
2023/01/12 03:48:36;;;;;;;0.20;0.20;;;9.10;99.90;;;;;;5044338;28;20492;-74
2023/01/12 03:51:18;;;;;;;0.93;0.93;;;9.10;99.90;;;;;;5049666;28;20059;-73
2023/01/12 03:53:48;;;;;;;0.10;0.10;;;9.10;99.90;;;;;;5050931;28;20055;-74
2023/01/12 03:56:15;;;;;;;0.45;0.45;;;9.00;99.90;;;;;;5078816;28;20052;-74
2023/01/12 03:58:41;;;;;;;0.40;0.40;;;9.10;99.90;;;;;;5068325;28;20036;-75
2023/01/12 04:01:07;;;;;;;0.40;0.40;;;9.10;99.90;;;;;;5074020;28;20056;-76
2023/01/12 04:03:33;;;;;;;1.55;1.45;;;9.10;99.90;;;;;;5081308;28;20032;-75
2023/01/12 04:05:58;;;;;;;0.47;0.47;;;9.00;99.90;;;;;;5070467;28;20123;-75
2023/01/12 04:08:24;;;;;;;0.10;0.10;;;9.10;99.90;;;;;;5089321;28;20048;-75
2023/01/12 04:10:49;;;;;;;0.30;0.30;;;9.10;99.90;;;;;;5095560;28;20043;-76
2023/01/12 04:13:15;;;;;;;0.10;0.10;;;9.10;99.90;;;;;;5091065;28;20044;-76
2023/01/12 04:15:43;;;;;;;0.50;0.50;;;9.10;99.90;;;;;;5074939;28;20080;-76
2023/01/12 04:18:10;;;;;;;0.05;0.05;;;9.10;99.90;;;;;;5073405;28;20114;-76
2023/01/12 04:20:37;;;;;;;0.10;0.10;;;9.00;99.90;;;;;;5092346;28;20110;-76
2023/01/12 04:23:03;;;;;;;0.17;0.17;;;8.90;99.90;;;;;;5092865;28;20040;-76
2023/01/12 04:25:29;;;;;;;6.32;1.52;;;8.90;99.90;;;;;;5060787;28;20044;-76
2023/01/12 04:28:03;;;;;;;0.55;0.55;;;8.90;99.90;;;;;;5055690;28;20041;-76
2023/01/12 04:30:30;;;;;;;0.20;0.20;;;8.90;99.90;;;;;;5055606;28;20056;-76
2023/01/12 04:32:56;;;;;;;0.10;0.10;;;8.80;99.90;;;;;;5054959;28;20056;-77
2023/01/12 04:35:23;;;;;;;0.10;0.10;;;8.70;99.90;;;;;;5055465;28;20040;-77
2023/01/12 04:37:49;;;;;;;6.30;1.83;;;8.70;99.90;;;;;;5102224;28;20399;-76
2023/01/12 04:40:16;;;;;;;0.10;0.10;;;8.70;99.90;;;;;;5086914;28;20036;-76
2023/01/12 04:43:06;;;;;;;0.10;0.10;;;8.60;99.90;;;;;;5071965;28;20055;-76
2023/01/12 04:45:37;;;;;;;0.30;0.30;;;8.60;99.90;;;;;;5074804;28;20053;-76
2023/01/12 04:48:05;;;;;;;0.10;0.10;;;8.60;99.90;;;;;;5071840;28;20060;-76
2023/01/12 04:50:31;;;;;;;0.10;0.10;;;8.60;99.90;;;;;;5072478;28;20090;-75
2023/01/12 04:52:56;;;;;;;1.30;1.20;;;8.60;99.90;;;;;;5081183;28;20131;-75
2023/01/12 04:55:22;;;;;;;4.30;2.25;;;8.60;99.90;;;;;;5072636;28;20492;-75
2023/01/12 04:57:48;;;;;;;0.40;0.40;;;8.60;99.90;;;;;;5072842;28;20503;-74
2023/01/12 05:00:13;;;;;;;0.13;0.13;;;8.70;99.90;;;;;;5079499;28;20381;-74
2023/01/12 05:02:39;;;;;;;0.10;0.10;;;8.60;99.90;;;;;;5071388;28;20138;-74
2023/01/12 05:05:07;;;;;;;0.10;0.10;;;8.60;99.90;;;;;;5072992;28;20045;-75
2023/01/12 05:07:32;;;;;;;0.00;0.00;;;8.70;99.90;;;;;;5083450;28;20068;-74
2023/01/12 05:12:42;;;;;;;0.10;0.10;;;8.70;99.90;;;;;;5079677;28;20052;-75
2023/01/12 05:15:08;;;;;;;0.10;0.10;;;8.70;99.90;;;;;;5092979;28;20365;-76
2023/01/12 05:17:34;;;;;;;0.05;0.05;;;8.70;99.90;;;;;;5092265;28;20048;-75
2023/01/12 05:19:59;;;;;;;0.38;0.38;;;8.70;99.90;;;;;;5092967;28;20333;-75
2023/01/12 05:22:25;;;;;;;0.10;0.10;;;8.70;99.90;;;;;;5075313;28;20049;-75
2023/01/12 05:24:50;;;;;;;0.10;0.10;;;8.70;99.90;;;;;;5054965;28;20458;-76
2023/01/12 05:27:17;;;;;;;0.10;0.10;;;8.70;99.90;;;;;;5072384;28;20041;-75
2023/01/12 05:29:42;;;;;;;0.05;0.05;;;8.70;99.90;;;;;;5059900;28;20411;-76
2023/01/12 05:32:08;;;;;;;0.00;0.00;;;8.70;99.90;;;;;;5072410;28;20044;-76
2023/01/12 05:34:33;;;;;;;0.30;0.30;;;8.70;99.90;;;;;;5082582;28;20054;-76
2023/01/12 05:36:59;;;;;;;0.10;0.10;;;8.70;99.90;;;;;;5096771;28;20043;-76
2023/01/12 05:39:24;;;;;;;0.03;0.03;;;8.70;99.90;;;;;;5097672;28;20050;-75
2023/01/12 05:44:34;;;;;;;0.00;0.00;;;8.80;99.90;;;;;;5089208;28;20081;-77
2023/01/12 05:46:59;;;;;;;0.10;0.10;;;8.80;99.90;;;;;;5085027;28;20143;-76
2023/01/12 05:49:25;;;;;;;0.00;0.00;;;8.90;99.90;;;;;;5071821;28;20052;-75
2023/01/12 05:51:51;;;;;;;0.00;0.00;;;8.90;99.90;;;;;;5077221;28;20051;-74
2023/01/12 05:54:16;;;;;;;0.00;0.00;;;8.90;99.90;;;;;;5071450;28;20571;-75
2023/01/12 05:56:42;;;;;;;0.10;0.10;;;8.90;99.90;;;;;;5071933;28;20044;-74
2023/01/12 05:59:10;;;;;;;0.10;0.10;;;8.90;99.90;;;;;;5059306;28;20131;-73
2023/01/12 06:01:37;;;;;;;0.00;0.00;;;8.90;99.90;;;;;;5090648;28;20555;-73
2023/01/12 06:04:03;;;;;;;0.10;0.10;;;8.90;99.90;;;;;;5088642;28;20430;-73
2023/01/12 06:06:30;;;;;;;0.45;0.45;;;9.00;99.90;;;;;;5071848;28;20079;-72
2023/01/12 06:08:57;;;;;;;0.10;0.10;;;9.00;99.90;;;;;;5086509;28;20041;-73
2023/01/12 06:14:07;;;;;;;;;;;9.10;99.90;;;;;;5082086;28;20048;-73
2023/01/12 06:16:35;;;;;;;0.10;0.10;;;9.30;99.90;;;;;;5054007;28;20010;-73
2023/01/12 06:19:01;;;;;;;0.10;0.10;;;9.40;99.90;;;;;;5069594;28;20052;-73
2023/01/12 06:21:27;;;;;;;0.10;0.10;;;9.50;99.90;;;;;;5053220;28;20388;-74
2023/01/12 06:23:52;;;;;;;1.83;1.73;;;9.60;99.90;;;;;;5071084;28;20048;-74
2023/01/12 06:26:18;;;;;;;0.98;0.98;;;9.70;99.90;;;;;;5051630;28;20068;-73
2023/01/12 06:28:43;;;;;;;0.10;0.10;;;9.80;99.90;;;;;;5076790;28;20036;-73
2023/01/12 06:31:11;;;;;;;1.00;1.00;;;9.80;99.90;;;;;;5091343;28;20081;-73
2023/01/12 06:33:37;;;;;;;0.25;0.25;;;9.80;99.90;;;;;;5077184;28;20586;-74
2023/01/12 06:36:03;;;;;;;0.00;0.00;;;9.90;99.90;;;;;;5070539;28;20060;-74
2023/01/12 06:38:30;;;;;;;0.10;0.10;;;9.90;99.90;;;;;;5110309;28;20036;-73
2023/01/12 06:43:55;;;;;;;0.10;0.10;;;10.00;99.90;;;;;;5070367;28;20048;-74
2023/01/12 06:46:21;;;;;;;1.00;0.93;;;10.00;99.90;;;;;;5070627;28;20573;-73
2023/01/12 06:48:47;;;;;;;0.03;0.03;;;10.10;99.90;;;;;;5075077;28;20259;-73
2023/01/12 06:51:12;;;;;;;0.10;0.10;;;10.20;99.90;;;;;;5070953;28;20052;-74
2023/01/12 06:53:38;;;;;;;0.68;0.68;;;10.20;99.90;;;;;;5072545;28;20059;-74
2023/01/12 06:56:04;;;;;;;2.92;1.10;;;10.20;99.90;;;;;;5075918;28;20797;-74
2023/01/12 06:58:29;;;;;;;0.00;0.00;;;10.30;99.90;;;;;;5070628;28;20044;-74
2023/01/12 07:01:00;;;;;;;0.10;0.10;;;10.30;99.90;;;;;;5067830;28;20446;-74
2023/01/12 07:03:26;;;;;;;0.10;0.10;;;10.30;99.90;;;;;;5077555;28;20051;-73
2023/01/12 07:05:51;;;;;;;0.22;0.22;;;10.30;99.90;;;;;;5077357;28;20040;-74
2023/01/12 07:08:18;;;;;;;0.05;0.05;;;10.30;99.90;;;;;;5084904;28;20048;-74
2023/01/12 07:10:44;;;;;;;1.65;1.55;;;10.30;99.90;;;;;;5069965;28;20044;-74
2023/01/12 07:13:10;;;;;;;0.57;0.57;;;10.30;99.90;;;;;;5070448;28;20135;-73
2023/01/12 07:15:35;;;;;;;5.18;2.20;;;10.30;99.90;;;;;;5069097;28;20115;-73
2023/01/12 07:18:01;;;;;;;1.27;1.13;;;10.30;99.90;;;;;;5070678;28;20055;-73
2023/01/12 07:20:27;;;;;;;1.27;1.17;;;10.30;99.90;;;;;;5052324;28;20155;-73
2023/01/12 07:22:54;;;;;;;0.98;0.82;;;10.40;99.90;;;;;;5073112;28;20480;-73
2023/01/12 07:25:20;;;;;;;0.10;0.10;;;10.30;99.90;;;;;;5078016;28;20519;-75
2023/01/12 07:27:53;;;;;;;0.10;0.10;;;10.40;99.90;;;;;;5077889;28;20072;-75
2023/01/12 07:30:22;;;;;;;0.10;0.10;;;10.40;99.90;;;;;;5069386;28;20049;-75
2023/01/12 07:32:48;;;;;;;1.30;0.95;;;10.40;99.90;;;;;;5070234;28;20056;-75
2023/01/12 07:35:14;;;;;;;0.10;0.10;;;10.50;99.90;;;;;;5075632;28;20420;-75
2023/01/12 07:37:49;;;;;;;12.15;0.85;;;10.50;99.90;;;;;;5085500;28;20044;-73
2023/01/12 07:40:15;;;;;;;0.65;0.65;;;10.50;99.90;;;;;;5084878;28;20035;-73
2023/01/12 07:42:41;;;;;;;0.10;0.10;;;10.50;99.90;;;;;;5092469;28;20488;-73
2023/01/12 07:45:07;;;;;;;1.02;1.02;;;10.50;99.90;;;;;;5094459;28;20055;-73
2023/01/12 07:47:33;;;;;;;10.15;2.60;;;10.40;99.90;;;;;;5073301;28;20086;-70
2023/01/12 07:49:58;;;;;;;0.22;0.22;;;10.50;99.90;;;;;;5073939;28;20040;-73
2023/01/12 07:52:24;;;;;;;0.73;0.68;;;10.50;99.90;;;;;;5055435;28;20037;-73
2023/01/12 07:54:49;;;;;;;10.70;2.28;;;10.50;99.90;;;;;;5076614;28;20372;-74
2023/01/12 07:57:15;;;;;;;0.90;0.80;;;10.50;99.90;;;;;;5072532;28;20118;-74
2023/01/12 07:59:40;;;;;;;0.10;0.10;;;10.50;99.90;;;;;;5087911;28;20039;-73
2023/01/12 08:02:15;;;;;;;0.32;0.32;;;10.50;99.90;;;;;;5080049;28;20051;-73
2023/01/12 08:04:43;;;;;;;0.10;0.10;;;10.50;99.90;;;;;;5092774;28;20056;-73
2023/01/12 08:07:09;;;;;;;0.00;0.00;;;10.50;99.90;;;;;;5101016;28;20368;-73
2023/01/12 08:09:34;;;;;;;5.47;2.20;;;10.60;99.90;;;;;;5095637;28;20050;-73
2023/01/12 08:12:00;;;;;;;1.75;0.73;;;10.60;99.90;;;;;;5102580;28;20037;-73
2023/01/12 08:14:32;;;;;;;0.10;0.10;;;10.60;99.90;;;;;;5093626;28;20411;-73
2023/01/12 08:17:00;;;;;;;1.17;1.17;;;10.70;99.90;;;;;;5092669;28;20418;-73
2023/01/12 08:19:35;;;;;;;30.58;1.00;;;10.60;99.90;;;;;;5077795;28;20040;-73
2023/01/12 08:22:02;;;;;;;0.00;0.00;;;10.60;99.90;;;;;;5055332;28;20048;-73
2023/01/12 08:24:33;;;;;;;0.90;0.90;;;10.60;99.90;;;;;;5071933;28;20399;-73
2023/01/12 08:27:03;;;;;;;1.30;0.85;;;10.70;99.90;;;;;;5080130;28;20102;-72
2023/01/12 08:29:33;;;;;;;0.57;0.38;;;10.60;99.90;;;;;;5064389;28;20059;-73
2023/01/12 08:32:01;;;;;;;1.92;1.83;;;10.60;99.90;;;;;;5093318;28;20040;-73
2023/01/12 08:34:27;;;;;;;0.10;0.10;;;10.60;99.90;;;;;;5085733;28;20119;-73
2023/01/12 08:36:54;;;;;;;0.15;0.15;;;10.60;99.90;;;;;;5081142;28;20069;-73
2023/01/12 08:39:19;;;;;;;1.38;1.27;;;10.60;99.90;;;;;;5093040;28;20040;-73
2023/01/12 08:41:45;;;;;;;0.17;0.17;;;10.60;99.90;;;;;;5085128;28;20547;-69
2023/01/12 08:44:11;;;;;;;0.10;0.10;;;10.60;99.90;;;;;;5091299;28;20066;-71
2023/01/12 08:46:47;;;;;;;0.00;0.00;;;10.60;99.90;;;;;;5093878;28;20164;-74
2023/01/12 08:49:13;;;;;;;9.32;1.70;;;10.60;99.90;;;;;;5072141;28;20056;-72
2023/01/12 08:51:39;;;;;;;0.10;0.10;;;10.60;99.90;;;;;;5086116;28;20040;-71
2023/01/12 08:54:06;;;;;;;0.10;0.10;;;10.70;99.90;;;;;;5082801;28;20040;-71
2023/01/12 08:56:32;;;;;;;0.10;0.10;;;10.70;99.90;;;;;;5066760;28;20067;-71
2023/01/12 08:58:58;;;;;;;0.10;0.10;;;10.70;99.90;;;;;;5103917;28;20510;-74
2023/01/12 09:01:23;;;;;;;1.65;1.55;;;10.70;99.90;;;;;;5112645;28;20036;-74
2023/01/12 09:03:49;;;;;;;2.13;1.95;;;10.80;99.90;;;;;;5080998;28;20036;-75
2023/01/12 09:06:21;;;;;;;0.10;0.10;;;10.80;99.90;;;;;;5080980;28;20040;-75
2023/01/12 09:08:47;;;;;;;0.38;0.38;;;10.80;99.90;;;;;;5079978;28;20040;-75
2023/01/12 09:11:14;;;;;;;0.93;0.82;;;10.80;99.90;;;;;;5083021;28;20036;-75
2023/01/12 09:13:40;;;;;;;3.50;1.13;;;10.80;99.90;;;;;;5074497;28;20075;-74
2023/01/12 09:16:11;;;;;;;0.25;0.25;;;10.80;99.90;;;;;;5092102;28;20043;-74
2023/01/12 09:18:38;;;;;;;0.08;0.08;;;10.80;99.90;;;;;;5080822;28;20256;-74
2023/01/12 09:21:07;;;;;;;1.02;0.95;;;10.80;99.90;;;;;;5071322;28;20127;-74
2023/01/12 09:23:33;;;;;;;1.60;0.95;;;10.80;99.90;;;;;;5072720;28;20045;-74
2023/01/12 09:26:05;;;;;;;17.90;0.88;;;10.80;99.90;;;;;;5054078;28;20036;-74
2023/01/12 09:28:30;;;;;;;1.55;1.05;;;10.90;99.90;;;;;;5072724;28;20057;-74
2023/01/12 09:31:00;;;;;;;0.10;0.10;;;10.90;99.90;;;;;;5053758;28;20044;-75
2023/01/12 09:33:26;;;;;;;0.30;0.30;;;10.90;99.90;;;;;;5072246;28;20059;-74
2023/01/12 09:35:51;;;;;;;0.00;0.00;;;10.90;99.90;;;;;;5070490;28;20850;-74
2023/01/12 09:38:17;;;;;;;0.10;0.10;;;10.90;99.90;;;;;;5073721;28;20270;-73
2023/01/12 09:40:43;;;;;;;6.93;2.85;;;10.90;99.90;;;;;;5092107;28;20051;-74
2023/01/12 09:48:43;;;;;;;0.45;0.45;;;10.90;99.90;;;;;;5066472;28;20453;-73
2023/01/12 09:51:23;;;;;;;1.38;1.27;;;10.90;99.90;;;;;;5069231;28;20480;-73
2023/01/12 09:53:48;;;;;;;5.43;1.55;;;10.90;99.90;;;;;;5091834;28;20055;-73
2023/01/12 09:56:22;;;;;;;4.25;1.95;;;10.80;99.90;;;;;;5091209;28;20032;-73
2023/01/12 09:59:08;;;;;;;0.10;0.10;;;10.80;99.90;;;;;;5085706;28;20056;-72
2023/01/12 10:01:35;;;;;;;0.88;0.52;;;10.70;99.90;;;;;;5076154;28;20041;-73
2023/01/12 10:04:02;;;;;;;0.75;0.75;;;10.70;99.90;;;;;;5070738;28;20185;-73
2023/01/12 10:06:28;;;;;;;0.20;0.20;;;10.80;99.90;;;;;;5074490;28;20074;-73
2023/01/12 10:08:59;;;;;;;0.30;0.30;;;10.80;99.90;;;;;;5076717;28;20040;-73
2023/01/12 10:11:37;;;;;;;0.25;0.25;;;10.80;99.90;;;;;;5072739;28;20044;-73
2023/01/12 10:14:21;;;;;;;0.10;0.10;;;10.80;99.90;;;;;;5070485;28;20067;-74
2023/01/12 10:17:07;;;;;;;1.08;1.08;;;10.80;99.90;;;;;;5070938;28;20052;-74
2023/01/12 10:20:06;;;;;;;0.10;0.10;;;10.80;99.90;;;;;;5010713;28;20041;-73
2023/01/12 10:23:00;;;;;;;0.28;0.28;;;10.80;99.90;;;;;;5068677;28;20066;-75
2023/01/12 10:25:42;;;;;;;0.10;0.10;;;10.80;99.90;;;;;;5061439;28;20052;-75
2023/01/12 10:28:35;;;;;;;1.25;1.13;;;10.80;99.90;;;;;;5079180;28;20052;-72
2023/01/12 10:31:01;;;;;;;0.20;0.20;;;10.80;99.90;;;;;;5048820;28;20484;-73
2023/01/12 10:33:30;;;;;;;0.40;0.40;;;10.80;99.90;;;;;;5070094;28;20044;-73
2023/01/12 10:36:32;;;;;;;7.13;2.08;;;10.90;99.90;;;;;;5070431;28;20048;-74
2023/01/12 10:39:02;;;;;;;0.77;0.77;;;10.90;99.90;;;;;;4982502;28;20054;-73
2023/01/12 10:41:29;;;;;;;1.75;1.65;;;10.90;99.90;;;;;;5063018;28;20407;-73
2023/01/12 10:43:55;;;;;;;21.70;2.80;;;10.90;99.90;;;;;;5070355;28;20051;-73
2023/01/12 10:46:23;;;;;;;5.18;1.20;;;10.90;99.90;;;;;;5069002;28;20438;-74
2023/01/12 10:48:51;;;;;;;0.00;0.00;;;11.00;99.90;;;;;;5070407;28;20494;-74
2023/01/12 10:51:21;;;;;;;0.03;0.03;;;11.00;99.90;;;;;;5078861;28;20086;-75
2023/01/12 10:53:50;;;;;;;1.65;1.10;;;11.00;99.90;;;;;;5068549;28;20400;-75
2023/01/12 10:56:21;;;;;;;0.95;0.95;;;11.00;99.90;;;;;;5082191;28;20403;-74
2023/01/12 10:58:59;;;;;;;0.10;0.10;;;11.10;99.90;;;;;;5063528;28;20102;-74
2023/01/12 11:01:40;;;;;;;0.13;0.13;;;11.10;99.90;;;;;;5069903;28;20136;-74
2023/01/12 11:04:06;;;;;;;1.45;1.35;;;11.10;99.90;;;;;;5070465;28;20434;-75
2023/01/12 11:06:31;;;;;;;0.10;0.10;;;11.20;99.90;;;;;;5075207;28;20147;-75
2023/01/12 11:09:15;;;;;;;0.43;0.43;;;11.20;99.90;;;;;;5051546;28;20044;-75
2023/01/12 11:11:40;;;;;;;0.40;0.40;;;11.30;99.90;;;;;;5070492;28;20427;-75
2023/01/12 11:14:22;;;;;;;17.33;4.50;;;11.30;99.90;;;;;;5050755;28;20048;-74
2023/01/12 11:16:51;;;;;;;0.10;0.10;;;11.20;99.90;;;;;;5086439;28;20044;-74
2023/01/12 11:19:28;;;;;;;0.10;0.10;;;11.20;99.90;;;;;;5072871;28;20779;-75
2023/01/12 11:21:59;;;;;;;9.20;3.80;;;11.30;99.90;;;;;;5083783;28;20059;-75
2023/01/12 11:24:56;;;;;;;0.00;0.00;;;11.30;99.90;;;;;;5079643;28;20037;-74
2023/01/12 11:27:30;;;;;;;2.08;1.38;;;11.40;99.90;;;;;;5068852;28;20052;-72
2023/01/12 11:30:14;;;;;;;0.10;0.10;;;11.50;99.90;;;;;;5050407;28;20063;-74
2023/01/12 11:32:52;;;;;;;3.60;3.30;;;11.50;99.90;;;;;;5089353;28;20526;-74
2023/01/12 11:35:24;;;;;;;0.30;0.30;;;11.50;99.90;;;;;;5074294;28;20496;-74
2023/01/12 11:37:53;;;;;;;0.10;0.10;;;11.50;99.90;;;;;;5055815;28;20143;-73
2023/01/12 11:40:31;;;;;;;0.10;0.10;;;11.50;99.90;;;;;;5090349;28;20051;-73
2023/01/12 11:45:58;;;;;;;0.82;0.82;;;11.50;99.90;;;;;;5083474;28;20052;-73
2023/01/12 11:48:42;;;;;;;25.10;1.35;;;11.50;99.90;;;;;;5075943;28;20044;-73
2023/01/12 11:51:11;;;;;;;0.05;0.05;;;11.50;99.90;;;;;;5075639;28;20040;-73
2023/01/12 11:53:38;;;;;;;0.10;0.10;;;11.50;99.90;;;;;;5089306;28;20491;-73
2023/01/12 11:56:13;;;;;;;0.00;0.00;;;11.50;99.90;;;;;;5053744;28;20040;-72
2023/01/12 11:59:01;;;;;;;0.40;0.40;;;11.40;99.90;;;;;;5051894;28;20060;-72
2023/01/12 12:01:39;;;;;;;0.10;0.10;;;11.40;99.90;;;;;;5069686;28;20059;-72
2023/01/12 12:04:28;;;;;;;0.08;0.08;;;11.40;99.90;;;;;;5069232;28;20484;-72
2023/01/12 12:07:16;;;;;;;0.08;0.08;;;11.30;99.90;;;;;;5070729;28;20586;-73
2023/01/12 12:09:50;;;;;;;3.88;2.63;;;11.30;99.90;;;;;;5069324;28;20492;-72
2023/01/12 12:12:42;;;;;;;2.15;1.42;;;11.30;99.90;;;;;;5068992;28;20080;-72
2023/01/12 12:15:36;;;;;;;0.00;0.00;;;11.30;99.90;;;;;;5057670;28;20071;-72
2023/01/12 12:18:21;;;;;;;1.17;1.17;;;11.30;99.90;;;;;;5051058;28;20052;-72
2023/01/12 12:21:20;;;;;;;0.82;0.82;;;11.30;99.90;;;;;;5058109;28;20302;-73
2023/01/12 12:24:41;;;;;;;0.15;0.15;;;11.30;99.90;;;;;;5072176;28;20396;-72
2023/01/12 12:27:23;;;;;;;0.10;0.10;;;11.20;99.90;;;;;;5024893;28;20056;-73
2023/01/12 12:30:03;;;;;;;1.27;1.17;;;11.20;99.90;;;;;;5072448;28;20174;-73
2023/01/12 12:32:28;;;;;;;0.30;0.30;;;11.20;99.90;;;;;;5087041;28;20517;-73
2023/01/12 12:35:19;;;;;;;0.30;0.30;;;11.10;99.90;;;;;;5110796;28;20051;-72
2023/01/12 12:38:04;;;;;;;0.45;0.45;;;11.10;99.90;;;;;;5113570;28;20043;-73
2023/01/12 12:46:48;;;;;;;0.10;0.10;;;11.10;99.90;;;;;;5078200;28;20053;-72
2023/01/12 12:49:18;;;;;;;1.00;1.00;;;11.20;99.90;;;;;;5064829;28;20055;-72
2023/01/12 12:51:45;;;;;;;0.10;0.10;;;11.20;99.90;;;;;;5093612;28;20044;-73
2023/01/12 12:54:16;;;;;;;1.27;1.17;;;11.20;99.90;;;;;;5082980;28;20089;-72
2023/01/12 12:56:42;;;;;;;0.10;0.10;;;11.20;99.90;;;;;;5092146;28;20484;-72
2023/01/12 12:59:30;;;;;;;0.22;0.20;;;11.20;99.90;;;;;;5086883;28;20094;-72
2023/01/12 13:01:59;;;;;;;0.00;0.00;;;11.20;99.90;;;;;;5090585;28;20040;-72
2023/01/12 13:04:45;;;;;;;0.45;0.45;;;11.20;99.90;;;;;;5056768;28;20396;-72
2023/01/12 13:07:17;;;;;;;0.10;0.10;;;11.20;99.90;;;;;;5089510;28;20057;-72
2023/01/12 13:09:43;;;;;;;0.38;0.38;;;11.20;99.90;;;;;;5089425;28;20343;-72
2023/01/12 13:12:18;;;;;;;0.45;0.45;;;11.20;99.90;;;;;;5072331;28;20044;-72
2023/01/12 13:15:13;;;;;;;0.10;0.10;;;11.20;99.90;;;;;;5053524;28;20137;-72
2023/01/12 13:17:41;;;;;;;0.00;0.00;;;11.20;99.90;;;;;;5087698;28;20488;-72
2023/01/12 13:20:07;;;;;;;0.10;0.10;;;11.20;99.90;;;;;;5072435;28;20900;-72
2023/01/12 13:22:45;;;;;;;0.73;0.73;;;11.20;99.90;;;;;;5071015;28;20055;-72
2023/01/12 13:25:21;;;;;;;0.10;0.10;;;11.20;99.90;;;;;;5091982;28;20040;-72
2023/01/12 13:27:58;;;;;;;1.45;0.75;;;11.20;99.90;;;;;;5084212;28;20131;-73
2023/01/12 13:30:27;;;;;;;0.10;0.10;;;11.20;99.90;;;;;;5072059;28;20048;-73
2023/01/12 13:33:14;;;;;;;0.75;0.75;;;11.20;99.90;;;;;;5070258;28;20476;-72
2023/01/12 13:35:39;;;;;;;4.68;1.20;;;11.30;99.90;;;;;;5090283;28;20505;-72
2023/01/12 13:38:33;;;;;;;0.10;0.10;;;11.30;99.90;;;;;;5080539;28;20048;-72
2023/01/12 13:41:14;;;;;;;0.10;0.10;;;11.30;99.90;;;;;;5054077;28;20460;-73
2023/01/12 13:43:52;;;;;;;0.00;0.00;;;11.30;99.90;;;;;;5069261;28;21685;-72
2023/01/12 13:46:34;;;;;;;0.03;0.03;;;11.30;99.90;;;;;;5052138;28;20135;-72
2023/01/12 13:49:01;;;;;;;0.30;0.30;;;11.30;99.90;;;;;;5070878;28;20044;-72
2023/01/12 13:51:38;;;;;;;0.25;0.25;;;11.30;99.90;;;;;;5059864;28;20050;-72